createdAt,value
2022-08-21T00:01:58.848Z,99971.14
2022-08-21T00:04:31.516Z,99966.23
2022-08-21T00:07:14.379Z,99964.61
2022-08-21T00:09:56.019Z,99965.41
2022-08-21T00:12:48.363Z,99962.55
2022-08-21T00:15:34.933Z,99964.53
2022-08-21T00:18:29.674Z,99963.17
2022-08-21T00:21:14.337Z,99958.41
2022-08-21T00:23:46.820Z,99956.13
2022-08-21T00:26:33.103Z,99953.52
2022-08-21T00:29:28.920Z,99954.02
2022-08-21T00:32:02.726Z,99955.55
2022-08-21T00:34:42.204Z,99957.77
2022-08-21T00:37:13.325Z,99954.98
2022-08-21T00:40:05.951Z,99954.91
2022-08-21T00:42:53.957Z,99953.00
2022-08-21T00:45:29.110Z,99948.03
2022-08-21T00:47:59.879Z,99943.79
2022-08-21T00:51:11.443Z,99944.94
2022-08-21T00:53:57.972Z,99943.70
2022-08-21T00:56:32.513Z,99941.00
2022-08-21T01:02:23.578Z,99938.61
2022-08-21T01:05:16.661Z,99934.52
2022-08-21T01:08:14.338Z,99933.86
2022-08-21T01:11:14.659Z,99936.10
2022-08-21T01:13:49.135Z,99935.26
2022-08-21T01:16:30.568Z,99936.90
2022-08-21T01:19:49.312Z,99940.58
2022-08-21T01:22:24.834Z,99936.48
2022-08-21T01:25:23.791Z,99941.52
2022-08-21T01:28:20.032Z,99939.77
2022-08-21T01:30:58.107Z,99938.54
2022-08-21T01:33:41.040Z,99933.75
2022-08-21T01:36:25.995Z,99929.26
2022-08-21T01:39:16.758Z,99921.30
2022-08-21T01:41:45.429Z,99918.48
2022-08-21T01:44:25.206Z,99918.69
2022-08-21T01:47:05.520Z,99913.69
2022-08-21T01:49:37.273Z,99916.82
2022-08-21T01:52:20.498Z,99909.16
2022-08-21T01:54:55.697Z,99902.04
2022-08-21T01:57:35.487Z,99900.11
2022-08-21T02:00:11.752Z,99901.52
2022-08-21T02:02:51.261Z,99902.77
2022-08-21T02:05:30.158Z,99899.91
2022-08-21T02:08:14.825Z,99897.09
2022-08-21T02:10:49.210Z,99898.70
2022-08-21T02:13:38.259Z,99897.98
2022-08-21T02:16:36.913Z,99896.73
2022-08-21T02:19:23.808Z,99895.75
2022-08-21T02:22:05.843Z,99896.57
2022-08-21T02:24:54.746Z,99895.93
2022-08-21T02:27:39.736Z,99901.22
2022-08-21T02:30:21.179Z,99897.52
2022-08-21T02:33:05.081Z,99897.75
2022-08-21T02:35:54.612Z,99901.03
2022-08-21T02:38:44.121Z,99893.55
2022-08-21T02:41:35.919Z,99890.85
2022-08-21T02:44:08.933Z,99887.80
2022-08-21T02:46:54.156Z,99885.88
2022-08-21T02:49:46.551Z,99889.34
2022-08-21T02:52:45.000Z,99886.70
2022-08-21T02:55:51.733Z,99886.77
2022-08-21T02:58:53.052Z,99882.83
2022-08-21T03:01:44.582Z,99878.36
2022-08-21T03:04:18.079Z,99878.04
2022-08-21T03:07:00.685Z,99872.65
2022-08-21T03:09:55.688Z,99874.09
2022-08-21T03:12:45.954Z,99870.01
2022-08-21T03:15:19.146Z,99870.39
2022-08-21T03:17:51.911Z,99865.56
2022-08-21T03:20:53.675Z,99862.02
2022-08-21T03:23:32.458Z,99868.16
2022-08-21T03:26:13.106Z,99869.83
2022-08-21T03:29:11.118Z,99869.33
2022-08-21T03:32:08.720Z,99865.23
2022-08-21T03:35:06.657Z,99862.90
2022-08-21T03:37:37.627Z,99855.71
2022-08-21T03:40:17.027Z,99859.45
2022-08-21T03:42:53.832Z,99862.48
2022-08-21T03:45:48.452Z,99866.64
2022-08-21T03:48:22.691Z,99863.09
2022-08-21T03:51:06.484Z,99864.19
2022-08-21T03:53:59.379Z,99865.29
2022-08-21T03:56:30.082Z,99865.11
2022-08-21T03:59:21.510Z,99864.90
2022-08-21T04:01:58.495Z,99868.46
2022-08-21T04:04:34.001Z,99876.16
2022-08-21T04:07:16.791Z,99874.02
2022-08-21T04:10:12.277Z,99873.64
2022-08-21T04:12:55.499Z,99870.78
2022-08-21T04:15:48.572Z,99872.77
2022-08-21T04:18:46.397Z,99871.90
2022-08-21T04:21:49.097Z,99872.46
2022-08-21T04:27:31.982Z,99875.81
2022-08-21T04:30:28.346Z,99872.64
2022-08-21T04:33:39.707Z,99867.52
2022-08-21T04:36:33.210Z,99867.02
2022-08-21T04:39:10.117Z,99869.23
2022-08-21T04:41:40.514Z,99866.02
2022-08-21T04:44:55.501Z,99867.45
2022-08-21T04:47:41.689Z,99864.21
2022-08-21T04:50:26.571Z,99866.19
2022-08-21T04:53:02.193Z,99867.41
2022-08-21T04:56:05.916Z,99865.96
2022-08-21T04:59:08.606Z,99869.37
2022-08-21T05:01:47.655Z,99868.95
2022-08-21T05:04:26.167Z,99873.90
2022-08-21T05:07:41.926Z,99877.92
2022-08-21T05:10:15.155Z,99883.39
2022-08-21T05:13:17.280Z,99885.10
2022-08-21T05:16:03.412Z,99879.20
2022-08-21T05:18:58.441Z,99879.70
2022-08-21T05:21:44.856Z,99874.64
2022-08-21T05:24:32.937Z,99875.09
2022-08-21T05:27:30.234Z,99876.96
2022-08-21T05:30:07.622Z,99874.52
2022-08-21T05:32:51.929Z,99872.61
2022-08-21T05:35:32.865Z,99872.83
2022-08-21T05:38:05.116Z,99874.68
2022-08-21T05:40:44.579Z,99874.20
2022-08-21T05:43:53.417Z,99874.94
2022-08-21T05:46:49.840Z,99874.51
2022-08-21T05:49:28.736Z,99878.55
2022-08-21T05:52:14.246Z,99878.27
2022-08-21T05:55:00.252Z,99878.02
2022-08-21T05:57:39.701Z,99880.13
2022-08-21T06:00:17.713Z,99875.80
2022-08-21T06:03:24.060Z,99878.65
2022-08-21T06:06:13.653Z,99878.00
2022-08-21T06:09:01.220Z,99875.99
2022-08-21T06:11:54.706Z,99879.03
2022-08-21T06:14:59.237Z,99876.40
2022-08-21T06:21:05.543Z,99876.36
2022-08-21T06:24:07.764Z,99878.98
2022-08-21T06:26:48.905Z,99883.14
2022-08-21T06:29:44.188Z,99884.26
2022-08-21T06:32:22.046Z,99884.10
2022-08-21T06:38:23.960Z,99888.73
2022-08-21T06:44:59.707Z,99896.40
2022-08-21T06:47:59.998Z,99897.52
2022-08-21T06:50:49.479Z,99897.48
2022-08-21T06:53:31.006Z,99898.62
2022-08-21T06:56:03.980Z,99895.61
2022-08-21T06:59:10.646Z,99895.34
2022-08-21T07:01:40.146Z,99901.37
2022-08-21T07:04:38.137Z,99900.83
2022-08-21T07:07:25.976Z,99902.28
2022-08-21T07:10:23.522Z,99906.95
2022-08-21T07:13:11.253Z,99903.80
2022-08-21T07:15:49.074Z,99898.19
2022-08-21T07:18:56.032Z,99897.03
2022-08-21T07:21:57.462Z,99898.10
2022-08-21T07:24:31.444Z,99897.70
2022-08-21T07:30:30.112Z,99891.44
2022-08-21T07:33:27.685Z,99887.65
2022-08-21T07:36:06.807Z,99886.93
2022-08-21T07:38:46.204Z,99881.98
2022-08-21T07:41:43.464Z,99878.51
2022-08-21T07:44:19.420Z,99875.04
2022-08-21T07:47:01.036Z,99871.32
2022-08-21T07:49:39.497Z,99871.29
2022-08-21T07:52:11.118Z,99873.15
2022-08-21T07:55:34.942Z,99874.48
2022-08-21T07:58:15.838Z,99868.30
2022-08-21T08:01:01.183Z,99867.37
2022-08-21T08:03:47.717Z,99868.39
2022-08-21T08:06:26.623Z,99862.40
2022-08-21T08:09:28.598Z,99862.67
2022-08-21T08:12:13.606Z,99859.43
2022-08-21T08:14:54.659Z,99858.61
2022-08-21T08:17:50.082Z,99857.92
2022-08-21T08:20:42.468Z,99857.41
2022-08-21T08:23:31.360Z,99859.20
2022-08-21T08:26:26.449Z,99855.99
2022-08-21T08:29:09.600Z,99849.48
2022-08-21T08:32:18.313Z,99852.08
2022-08-21T08:34:59.053Z,99857.60
2022-08-21T08:37:46.677Z,99851.76
2022-08-21T08:40:45.907Z,99850.98
2022-08-21T08:43:18.731Z,99845.55
2022-08-21T08:46:11.242Z,99841.63
2022-08-21T08:49:01.368Z,99839.26
2022-08-21T08:52:07.081Z,99838.70
2022-08-21T08:54:56.709Z,99840.09
2022-08-21T08:57:34.253Z,99843.97
2022-08-21T09:00:11.853Z,99848.38
2022-08-21T09:03:10.169Z,99848.38
2022-08-21T09:05:59.573Z,99843.46
2022-08-21T09:08:44.285Z,99838.23
2022-08-21T09:11:32.128Z,99839.41
2022-08-21T09:14:42.389Z,99839.69
2022-08-21T09:17:56.689Z,99839.65
2022-08-21T09:20:45.477Z,99843.79
2022-08-21T09:23:47.972Z,99844.83
2022-08-21T09:26:21.780Z,99843.53
2022-08-21T09:29:03.346Z,99837.39
2022-08-21T09:32:01.131Z,99834.84
2022-08-21T09:34:56.175Z,99828.59
2022-08-21T09:37:57.370Z,99830.88
2022-08-21T09:40:55.352Z,99829.70
2022-08-21T09:43:43.440Z,99830.56
2022-08-21T09:46:43.267Z,99831.26
2022-08-21T09:49:42.964Z,99833.34
2022-08-21T09:52:29.258Z,99833.85
2022-08-21T09:55:18.923Z,99827.60
2022-08-21T09:58:11.433Z,99819.95
2022-08-21T10:01:04.534Z,99821.96
2022-08-21T10:03:43.469Z,99816.46
2022-08-21T10:06:36.913Z,99818.53
2022-08-21T10:09:38.260Z,99816.65
2022-08-21T10:12:24.097Z,99814.78
2022-08-21T10:15:32.325Z,99814.64
2022-08-21T10:19:00.561Z,99817.06
2022-08-21T10:22:13.059Z,99815.94
2022-08-21T10:25:06.222Z,99813.84
2022-08-21T10:28:05.141Z,99815.92
2022-08-21T10:30:51.621Z,99815.48
2022-08-21T10:33:43.824Z,99813.33
2022-08-21T10:36:37.601Z,99812.27
2022-08-21T10:39:35.047Z,99812.58
2022-08-21T10:42:27.961Z,99814.98
2022-08-21T10:45:06.308Z,99809.91
2022-08-21T10:47:46.348Z,99811.11
2022-08-21T10:50:53.382Z,99810.41
2022-08-21T10:53:50.824Z,99809.94
2022-08-21T10:56:29.410Z,99803.77
2022-08-21T10:59:27.742Z,99805.57
2022-08-21T11:02:24.120Z,99803.73
2022-08-21T11:05:01.441Z,99807.40
2022-08-21T11:08:03.763Z,99802.91
2022-08-21T11:11:00.338Z,99802.23
2022-08-21T11:14:00.821Z,99798.55
2022-08-21T11:16:40.358Z,99793.89
2022-08-21T11:19:35.028Z,99791.85
2022-08-21T11:22:09.361Z,99791.68
2022-08-21T11:24:46.045Z,99792.70
2022-08-21T11:27:29.362Z,99793.64
2022-08-21T11:30:24.526Z,99789.59
2022-08-21T11:33:09.681Z,99789.93
2022-08-21T11:35:49.310Z,99787.46
2022-08-21T11:38:53.268Z,99784.98
2022-08-21T11:41:44.071Z,99785.33
2022-08-21T11:44:45.616Z,99790.20
2022-08-21T11:47:29.592Z,99787.14
2022-08-21T11:50:34.849Z,99787.86
2022-08-21T11:53:15.652Z,99789.95
2022-08-21T11:56:03.370Z,99793.39
2022-08-21T11:58:59.104Z,99788.80
2022-08-21T12:05:23.237Z,99787.85
2022-08-21T12:08:16.516Z,99787.61
2022-08-21T12:12:52.474Z,99781.34
2022-08-21T12:15:38.777Z,99773.70
2022-08-21T12:18:49.927Z,99768.25
2022-08-21T12:21:39.808Z,99770.26
2022-08-21T12:24:15.245Z,99773.13
2022-08-21T12:27:32.476Z,99775.14
2022-08-21T12:30:40.709Z,99774.23
2022-08-21T12:33:49.707Z,99773.80
2022-08-21T12:36:46.465Z,99774.81
2022-08-21T12:39:43.634Z,99773.31
2022-08-21T12:42:30.867Z,99771.11
2022-08-21T12:45:48.526Z,99770.72
2022-08-21T12:48:56.493Z,99769.57
2022-08-21T12:51:30.787Z,99768.83
2022-08-21T12:54:19.556Z,99770.14
2022-08-21T12:57:04.680Z,99771.55
2022-08-21T13:00:05.425Z,99778.38
2022-08-21T13:02:48.513Z,99776.78
2022-08-21T13:05:52.602Z,99775.77
2022-08-21T13:08:40.800Z,99777.52
2022-08-21T13:11:34.498Z,99779.02
2022-08-21T13:14:40.825Z,99776.42
2022-08-21T13:17:32.397Z,99779.55
2022-08-21T13:20:27.895Z,99771.86
2022-08-21T13:23:00.007Z,99775.48
2022-08-21T13:25:31.971Z,99770.31
2022-08-21T13:28:18.816Z,99770.95
2022-08-21T13:31:14.892Z,99765.56
2022-08-21T13:38:45.931Z,99765.39
2022-08-21T13:41:30.351Z,99770.51
2022-08-21T13:44:23.540Z,99771.54
2022-08-21T13:47:14.785Z,99773.62
2022-08-21T13:50:10.550Z,99771.60
2022-08-21T13:52:58.252Z,99776.39
2022-08-21T13:55:42.601Z,99770.64
2022-08-21T13:58:53.526Z,99772.92
2022-08-21T14:01:49.939Z,99772.02
2022-08-21T14:04:32.092Z,99775.00
2022-08-21T14:07:18.164Z,99779.14
2022-08-21T14:09:57.581Z,99780.46
2022-08-21T14:13:12.736Z,99777.15
2022-08-21T14:15:46.636Z,99774.34
2022-08-21T14:18:19.473Z,99775.14
2022-08-21T14:20:50.696Z,99778.71
2022-08-21T14:23:32.641Z,99783.86
2022-08-21T14:26:10.302Z,99785.26
2022-08-21T14:28:47.970Z,99786.61
2022-08-21T14:31:31.162Z,99784.70
2022-08-21T14:34:27.696Z,99784.89
2022-08-21T14:37:12.152Z,99785.21
2022-08-21T14:39:46.207Z,99786.61
2022-08-21T14:42:36.670Z,99777.72
2022-08-21T14:45:30.778Z,99774.24
2022-08-21T14:48:21.218Z,99769.97
2022-08-21T14:51:05.177Z,99768.90
2022-08-21T14:53:35.723Z,99771.17
2022-08-21T14:56:14.783Z,99771.00
2022-08-21T14:58:54.243Z,99766.77
2022-08-21T15:01:43.574Z,99764.65
2022-08-21T15:04:42.448Z,99767.70
2022-08-21T15:07:27.092Z,99764.53
2022-08-21T15:09:56.877Z,99763.92
2022-08-21T15:12:37.052Z,99765.16
2022-08-21T15:15:18.424Z,99768.39
2022-08-21T15:17:56.131Z,99763.92
2022-08-21T15:20:38.955Z,99764.25
2022-08-21T15:23:16.644Z,99765.78
2022-08-21T15:26:01.272Z,99765.17
2022-08-21T15:28:39.747Z,99764.13
2022-08-21T15:31:20.178Z,99762.11
2022-08-21T15:34:14.389Z,99763.92
2022-08-21T15:37:00.148Z,99766.99
2022-08-21T15:42:57.617Z,99765.55
2022-08-21T15:45:41.881Z,99765.66
2022-08-21T15:48:28.965Z,99766.41
2022-08-21T15:51:23.321Z,99773.10
2022-08-21T15:54:45.730Z,99772.06
2022-08-21T16:01:44.159Z,99784.19
2022-08-21T16:04:33.452Z,99786.85
2022-08-21T16:07:16.873Z,99786.05
2022-08-21T16:09:52.806Z,99785.48
2022-08-21T16:12:33.421Z,99786.08
2022-08-21T16:15:10.858Z,99793.08
2022-08-21T16:17:55.000Z,99791.29
2022-08-21T16:21:15.201Z,99796.98
2022-08-21T16:24:08.009Z,99801.88
2022-08-21T16:27:32.143Z,99803.39
2022-08-21T16:30:21.079Z,99806.35
2022-08-21T16:33:21.436Z,99808.17
2022-08-21T16:35:59.068Z,99812.64
2022-08-21T16:38:51.405Z,99810.73
2022-08-21T16:42:09.800Z,99811.92
2022-08-21T16:45:04.123Z,99811.08
2022-08-21T16:47:54.513Z,99815.72
2022-08-21T16:50:57.841Z,99820.83
2022-08-21T16:53:44.372Z,99825.08
2022-08-21T16:56:17.727Z,99828.65
2022-08-21T16:59:41.460Z,99832.29
2022-08-21T17:02:39.994Z,99833.62
2022-08-21T17:05:31.645Z,99835.95
2022-08-21T17:08:07.563Z,99839.30
2022-08-21T17:10:49.279Z,99842.65
2022-08-21T17:13:39.121Z,99844.69
2022-08-21T17:17:00.544Z,99841.23
2022-08-21T17:19:40.030Z,99840.40
2022-08-21T17:22:27.530Z,99843.34
2022-08-21T17:25:07.197Z,99840.27
2022-08-21T17:27:50.656Z,99840.78
2022-08-21T17:30:46.900Z,99845.20
2022-08-21T17:33:37.909Z,99846.18
2022-08-21T17:36:33.564Z,99848.86
2022-08-21T17:39:22.235Z,99852.68
2022-08-21T17:42:09.726Z,99851.00
2022-08-21T17:45:02.355Z,99854.21
2022-08-21T17:47:50.739Z,99851.70
2022-08-21T17:50:32.130Z,99853.45
2022-08-21T17:53:27.396Z,99855.70
2022-08-21T17:56:16.586Z,99851.89
2022-08-21T17:59:25.802Z,99854.25
2022-08-21T18:02:09.952Z,99858.14
2022-08-21T18:05:06.649Z,99858.95
2022-08-21T18:08:18.631Z,99858.67
2022-08-21T18:11:50.517Z,99860.02
2022-08-21T18:14:34.406Z,99862.39
2022-08-21T18:17:25.071Z,99864.09
2022-08-21T18:20:20.913Z,99870.34
2022-08-21T18:23:12.157Z,99867.22
2022-08-21T18:26:05.930Z,99864.05
2022-08-21T18:29:00.900Z,99866.29
2022-08-21T18:31:45.432Z,99867.94
2022-08-21T18:34:36.540Z,99870.86
2022-08-21T18:37:30.559Z,99876.14
2022-08-21T18:40:09.276Z,99879.11
2022-08-21T18:43:11.050Z,99882.80
2022-08-21T18:45:59.179Z,99884.52
2022-08-21T18:49:03.089Z,99883.33
2022-08-21T18:51:45.478Z,99881.83
2022-08-21T18:54:42.769Z,99880.81
2022-08-21T18:57:30.826Z,99882.48
2022-08-21T19:00:27.642Z,99882.14
2022-08-21T19:03:34.326Z,99885.98
2022-08-21T19:06:05.455Z,99888.06
2022-08-21T19:09:03.460Z,99890.27
2022-08-21T19:11:49.220Z,99892.65
2022-08-21T19:14:38.688Z,99890.91
2022-08-21T19:21:59.914Z,99890.21
2022-08-21T19:24:38.553Z,99892.92
2022-08-21T19:27:23.490Z,99893.11
2022-08-21T19:30:01.834Z,99895.83
2022-08-21T19:32:54.493Z,99888.66
2022-08-21T19:35:45.074Z,99887.87
2022-08-21T19:38:46.310Z,99890.60
2022-08-21T19:41:33.844Z,99894.45
2022-08-21T19:44:32.464Z,99890.83
2022-08-21T19:47:29.371Z,99896.76
2022-08-21T19:50:33.622Z,99898.86
2022-08-21T19:53:32.149Z,99898.56
2022-08-21T19:56:25.089Z,99902.36
2022-08-21T19:59:24.830Z,99901.67
2022-08-21T20:02:15.106Z,99901.91
2022-08-21T20:05:12.482Z,99904.29
2022-08-21T20:07:43.334Z,99907.02
2022-08-21T20:10:33.535Z,99904.02
2022-08-21T20:13:23.399Z,99905.64
2022-08-21T20:16:20.153Z,99904.11
2022-08-21T20:18:58.231Z,99900.38
2022-08-21T20:22:05.255Z,99900.03
2022-08-21T20:24:58.894Z,99901.84
2022-08-21T20:27:45.395Z,99899.89
2022-08-21T20:30:22.727Z,99897.11
2022-08-21T20:33:00.009Z,99892.36
2022-08-21T20:35:53.335Z,99895.14
2022-08-21T20:38:25.697Z,99894.49
2022-08-21T20:41:21.521Z,99896.33
2022-08-21T20:44:29.913Z,99892.98
2022-08-21T20:47:06.550Z,99898.42
2022-08-21T20:49:56.806Z,99896.15
2022-08-21T20:52:48.736Z,99898.39
2022-08-21T20:55:31.551Z,99898.98
2022-08-21T20:58:17.961Z,99907.48
2022-08-21T21:01:01.835Z,99903.00
2022-08-21T21:03:46.048Z,99901.59
2022-08-21T21:06:36.970Z,99898.20
2022-08-21T21:12:51.283Z,99900.36
2022-08-21T21:15:52.474Z,99897.41
2022-08-21T21:18:44.595Z,99895.38
2022-08-21T21:21:51.624Z,99895.27
2022-08-21T21:24:37.414Z,99899.28
2022-08-21T21:27:28.278Z,99900.63
2022-08-21T21:30:26.123Z,99899.84
2022-08-21T21:33:07.026Z,99898.42
2022-08-21T21:35:52.466Z,99899.18
2022-08-21T21:38:38.425Z,99902.77
2022-08-21T21:45:17.966Z,99902.23
2022-08-21T21:48:45.570Z,99902.84
2022-08-21T21:59:29.751Z,99898.79
2022-08-21T22:02:25.041Z,99896.33
2022-08-21T22:05:14.929Z,99897.23
2022-08-21T22:08:08.031Z,99898.54
2022-08-21T22:11:08.799Z,99901.09
2022-08-21T22:14:25.349Z,99899.48
2022-08-21T22:17:27.737Z,99897.88
2022-08-21T22:20:08.981Z,99899.73
2022-08-21T22:23:17.155Z,99900.50
2022-08-21T22:25:59.916Z,99894.14
2022-08-21T22:28:42.580Z,99895.10
2022-08-21T22:31:40.287Z,99895.84
2022-08-21T22:34:35.908Z,99896.39
2022-08-21T22:37:38.496Z,99891.61
2022-08-21T22:40:11.930Z,99894.49
2022-08-21T22:43:36.678Z,99895.95
2022-08-21T22:46:27.955Z,99895.81
2022-08-21T22:49:16.051Z,99893.34
2022-08-21T22:52:08.272Z,99887.64
2022-08-21T22:55:01.881Z,99885.31
2022-08-21T22:58:20.625Z,99884.96
2022-08-21T23:01:21.253Z,99886.80
2022-08-21T23:04:27.700Z,99894.52
2022-08-21T23:07:11.482Z,99892.08
2022-08-21T23:10:00.402Z,99898.92
2022-08-21T23:12:49.032Z,99897.00
2022-08-21T23:15:42.175Z,99898.96
2022-08-21T23:18:39.599Z,99900.98
2022-08-21T23:21:56.068Z,99904.80
2022-08-21T23:24:36.699Z,99902.89
2022-08-21T23:27:42.154Z,99899.89
2022-08-21T23:30:20.865Z,99899.92
2022-08-21T23:33:34.453Z,99900.70
2022-08-21T23:36:40.330Z,99900.23
2022-08-21T23:39:43.670Z,99896.89
2022-08-21T23:42:40.479Z,99903.30
2022-08-21T23:52:52.730Z,99906.59
2022-08-21T23:55:44.541Z,99909.46
2022-08-21T23:58:43.426Z,99910.93
